Time;durP1;ratioP1;P1;durP2;ratioP2;P2;SDS_P1;SDS_P2;PMS_P1;PMS_P2;Temp;Humidity;BMP_temperature;BMP_pressure;BME280_temperature;BME280_humidity;BME280_pressure;Samples;Min_cycle;Max_cycle;Signal;HPM_P1;HPM_P2
2022/07/17 00:01:57;;;;;;;3.88;1.05;;;13.60;99.40;;;;;;4352993;28;10000484;-70
2022/07/17 00:04:22;;;;;;;3.47;1.02;;;13.60;99.90;;;;;;5052211;28;20021;-70
2022/07/17 00:06:48;;;;;;;2.83;1.05;;;13.50;99.90;;;;;;5066718;28;20028;-70
2022/07/17 00:09:14;;;;;;;4.20;0.95;;;13.50;99.90;;;;;;5056524;28;20020;-70
2022/07/17 00:11:39;;;;;;;3.60;1.00;;;13.50;99.90;;;;;;5059367;28;20374;-70
2022/07/17 00:14:05;;;;;;;4.60;1.02;;;13.60;99.90;;;;;;5051210;28;20127;-70
2022/07/17 00:16:31;;;;;;;3.75;1.13;;;13.70;99.90;;;;;;5059088;28;20106;-70
2022/07/17 00:18:56;;;;;;;4.22;1.17;;;13.70;99.90;;;;;;5046924;28;20024;-70
2022/07/17 00:21:22;;;;;;;2.28;1.05;;;13.80;99.90;;;;;;5061969;28;20027;-70
2022/07/17 00:23:48;;;;;;;3.40;1.20;;;13.70;99.90;;;;;;5058023;28;20016;-70
2022/07/17 00:26:13;;;;;;;2.42;1.02;;;13.60;99.90;;;;;;5051081;28;20634;-70
2022/07/17 00:28:39;;;;;;;3.90;1.20;;;13.50;99.90;;;;;;5051525;28;20496;-70
2022/07/17 00:31:05;;;;;;;2.65;1.05;;;13.40;99.90;;;;;;5051221;28;20316;-70
2022/07/17 00:33:30;;;;;;;2.17;0.98;;;13.20;99.90;;;;;;5054567;28;20036;-70
2022/07/17 00:35:56;;;;;;;1.95;1.00;;;13.20;99.90;;;;;;5055760;28;20029;-69
2022/07/17 00:38:22;;;;;;;3.80;1.50;;;13.10;99.90;;;;;;5057597;28;20608;-71
2022/07/17 00:40:47;;;;;;;3.05;1.10;;;13.10;99.90;;;;;;5057626;28;20016;-70
2022/07/17 00:43:13;;;;;;;2.83;1.30;;;13.00;99.90;;;;;;5058141;28;20021;-70
2022/07/17 00:45:39;;;;;;;4.13;1.20;;;13.00;99.90;;;;;;5054467;28;20053;-70
2022/07/17 00:48:08;;;;;;;3.45;1.70;;;13.00;99.90;;;;;;5065045;28;20020;-70
2022/07/17 00:50:39;;;;;;;5.57;1.40;;;13.10;99.90;;;;;;5049759;28;20548;-69
2022/07/17 00:53:06;;;;;;;5.15;1.50;;;13.10;99.90;;;;;;5053766;28;20036;-70
2022/07/17 00:55:32;;;;;;;4.50;1.35;;;13.20;99.90;;;;;;5069218;28;20448;-70
2022/07/17 00:58:02;;;;;;;3.33;1.40;;;13.30;99.90;;;;;;5056586;28;20071;-69
2022/07/17 01:00:28;;;;;;;5.43;1.70;;;13.30;99.90;;;;;;5049848;28;20032;-69
2022/07/17 01:02:54;;;;;;;5.18;1.70;;;13.30;99.90;;;;;;5063912;28;20050;-70
2022/07/17 01:05:21;;;;;;;4.20;1.52;;;13.50;99.90;;;;;;5050232;28;20033;-69
2022/07/17 01:07:47;;;;;;;2.90;1.30;;;13.50;99.90;;;;;;5056670;28;20477;-70
2022/07/17 01:10:16;;;;;;;4.65;1.60;;;13.50;99.90;;;;;;5055257;28;20031;-69
2022/07/17 01:12:42;;;;;;;5.82;1.85;;;13.40;99.90;;;;;;5047257;28;20040;-70
2022/07/17 01:15:11;;;;;;;3.17;1.40;;;13.30;99.90;;;;;;5060711;28;20028;-69
2022/07/17 01:17:37;;;;;;;2.90;1.20;;;13.10;99.90;;;;;;5066518;28;20392;-70
2022/07/17 01:20:08;;;;;;;4.60;1.42;;;12.90;99.90;;;;;;5043728;28;20032;-70
2022/07/17 01:22:49;;;;;;;2.97;1.20;;;12.80;99.90;;;;;;5043275;28;20528;-69
2022/07/17 01:25:17;;;;;;;2.28;1.20;;;12.70;99.90;;;;;;5062883;28;20390;-70
2022/07/17 01:27:43;;;;;;;1.83;1.10;;;12.60;99.90;;;;;;5055943;28;20107;-70
2022/07/17 01:30:09;;;;;;;2.42;1.25;;;12.60;99.90;;;;;;5049295;28;20182;-69
2022/07/17 01:32:38;;;;;;;3.13;1.40;;;12.60;99.90;;;;;;5048554;28;20033;-70
2022/07/17 01:35:05;;;;;;;3.58;1.27;;;12.60;99.90;;;;;;5058365;28;20024;-70
2022/07/17 01:37:31;;;;;;;2.45;1.13;;;12.50;99.90;;;;;;5056173;28;20120;-70
2022/07/17 01:39:57;;;;;;;7.25;1.50;;;12.50;99.90;;;;;;5051291;28;20027;-70
2022/07/17 01:42:24;;;;;;;2.78;1.27;;;12.40;99.90;;;;;;5048999;28;20208;-70
2022/07/17 01:44:50;;;;;;;4.32;1.30;;;12.40;99.90;;;;;;5050309;28;20029;-70
2022/07/17 01:47:16;;;;;;;3.17;1.10;;;12.40;99.90;;;;;;5057668;28;20432;-70
2022/07/17 01:49:55;;;;;;;2.45;1.20;;;12.40;99.90;;;;;;5071036;28;20472;-70
2022/07/17 01:52:22;;;;;;;2.00;1.10;;;12.40;99.90;;;;;;5055805;28;20033;-70
2022/07/17 01:54:48;;;;;;;2.78;1.10;;;12.40;99.90;;;;;;5058791;28;20043;-70
2022/07/17 01:57:14;;;;;;;2.67;1.20;;;12.40;99.90;;;;;;5059714;28;20032;-70
2022/07/17 01:59:41;;;;;;;2.33;1.30;;;12.40;99.90;;;;;;5041621;28;20104;-70
2022/07/17 02:02:07;;;;;;;3.70;1.38;;;12.30;99.90;;;;;;5052538;28;20083;-70
2022/07/17 02:04:34;;;;;;;2.30;1.35;;;12.30;99.90;;;;;;5047945;28;20021;-69
2022/07/17 02:07:00;;;;;;;2.10;1.17;;;12.30;99.90;;;;;;5071619;28;20080;-69
2022/07/17 02:09:26;;;;;;;3.72;1.20;;;12.30;99.90;;;;;;5054614;28;20032;-70
2022/07/17 02:11:51;;;;;;;1.75;1.20;;;12.20;99.90;;;;;;5070197;28;20057;-70
2022/07/17 02:14:17;;;;;;;2.03;1.30;;;12.20;99.90;;;;;;5054336;28;20037;-69
2022/07/17 02:16:43;;;;;;;2.85;1.10;;;12.10;99.90;;;;;;5055088;28;20028;-69
2022/07/17 02:19:09;;;;;;;3.40;1.33;;;12.00;99.90;;;;;;5056921;28;20041;-70
2022/07/17 02:21:35;;;;;;;3.45;1.42;;;12.00;99.90;;;;;;5055390;28;20059;-69
2022/07/17 02:24:00;;;;;;;2.83;1.08;;;12.00;99.90;;;;;;5068290;28;20309;-70
2022/07/17 02:26:26;;;;;;;1.85;1.10;;;12.10;99.90;;;;;;5049814;28;20063;-70
2022/07/17 02:28:51;;;;;;;3.22;1.25;;;12.00;99.90;;;;;;5056356;28;20090;-70
2022/07/17 02:31:17;;;;;;;3.72;1.40;;;12.00;99.90;;;;;;5060411;28;20021;-70
2022/07/17 02:33:43;;;;;;;2.35;1.40;;;11.90;99.90;;;;;;5060926;28;20028;-70
2022/07/17 02:36:08;;;;;;;3.50;1.42;;;11.90;99.90;;;;;;5054955;28;20432;-70
2022/07/17 02:38:34;;;;;;;2.25;1.00;;;11.90;99.90;;;;;;5053070;28;20028;-70
2022/07/17 02:41:00;;;;;;;2.97;1.30;;;11.90;99.90;;;;;;5069358;28;20448;-69
2022/07/17 02:43:26;;;;;;;2.90;1.30;;;11.80;99.90;;;;;;5055976;28;20024;-70
2022/07/17 02:45:51;;;;;;;3.47;1.42;;;11.80;99.90;;;;;;5062177;28;20487;-70
2022/07/17 02:48:17;;;;;;;3.83;1.52;;;11.70;99.90;;;;;;5070478;28;20085;-70
2022/07/17 02:50:42;;;;;;;1.80;1.20;;;11.70;99.90;;;;;;5065903;28;20028;-69
2022/07/17 02:53:08;;;;;;;4.68;1.67;;;11.70;99.90;;;;;;5047968;28;20127;-70
2022/07/17 02:55:33;;;;;;;2.92;1.60;;;11.70;99.90;;;;;;5055445;28;20644;-70
2022/07/17 02:57:59;;;;;;;5.85;1.98;;;11.70;99.90;;;;;;5070840;28;20022;-70
2022/07/17 03:00:26;;;;;;;4.53;1.50;;;11.60;99.90;;;;;;5051771;28;20028;-70
2022/07/17 03:02:52;;;;;;;4.13;1.58;;;11.50;99.90;;;;;;5064108;28;20031;-70
2022/07/17 03:05:18;;;;;;;4.63;1.55;;;11.50;99.90;;;;;;5056605;28;20037;-70
2022/07/17 03:07:44;;;;;;;4.50;1.55;;;11.40;99.90;;;;;;5057921;28;20039;-69
2022/07/17 03:10:10;;;;;;;4.43;1.60;;;11.50;99.90;;;;;;5046760;28;20024;-70
2022/07/17 03:12:36;;;;;;;4.13;1.77;;;11.60;99.90;;;;;;5051886;28;20396;-70
2022/07/17 03:15:02;;;;;;;2.20;1.52;;;11.60;99.90;;;;;;5061508;28;20514;-70
2022/07/17 03:17:28;;;;;;;5.38;1.45;;;11.50;99.90;;;;;;5053581;28;20056;-70
2022/07/17 03:19:53;;;;;;;5.22;1.70;;;11.50;99.90;;;;;;5056291;28;20063;-70
2022/07/17 03:22:19;;;;;;;3.90;1.73;;;11.40;99.90;;;;;;5062279;28;20068;-70
2022/07/17 03:24:45;;;;;;;3.90;1.65;;;11.40;99.90;;;;;;5072020;28;20379;-70
2022/07/17 03:27:10;;;;;;;3.35;1.40;;;11.20;99.90;;;;;;5056587;28;20074;-70
2022/07/17 03:29:36;;;;;;;2.80;1.60;;;11.20;99.90;;;;;;5054444;28;20127;-70
2022/07/17 03:32:02;;;;;;;4.40;1.40;;;11.20;99.90;;;;;;5069281;28;20056;-70
2022/07/17 03:34:27;;;;;;;3.63;1.60;;;11.20;99.90;;;;;;5054692;28;20023;-69
2022/07/17 03:36:53;;;;;;;2.65;1.45;;;11.20;99.90;;;;;;5053024;28;20056;-69
2022/07/17 03:39:18;;;;;;;2.60;1.55;;;11.20;99.90;;;;;;5059700;28;20029;-69
2022/07/17 03:41:44;;;;;;;1.73;1.27;;;11.20;99.90;;;;;;5071179;28;20048;-69
2022/07/17 03:44:10;;;;;;;4.60;1.60;;;11.10;99.90;;;;;;5050797;28;20077;-69
2022/07/17 03:46:35;;;;;;;4.07;1.75;;;11.10;99.90;;;;;;5062488;28;20020;-70
2022/07/17 03:49:02;;;;;;;2.72;1.42;;;11.10;99.90;;;;;;5067605;28;20021;-69
2022/07/17 03:51:27;;;;;;;4.43;1.70;;;11.10;99.90;;;;;;5057283;28;20055;-70
2022/07/17 03:53:53;;;;;;;4.25;2.03;;;11.10;99.90;;;;;;5055070;28;20147;-70
2022/07/17 03:56:18;;;;;;;4.57;1.83;;;11.00;99.90;;;;;;5062919;28;20012;-70
2022/07/17 03:58:44;;;;;;;3.55;1.95;;;11.00;99.90;;;;;;5050571;28;20224;-70
2022/07/17 04:01:10;;;;;;;4.03;1.65;;;11.20;99.90;;;;;;5065848;28;20142;-69
2022/07/17 04:03:35;;;;;;;4.20;2.03;;;11.20;99.90;;;;;;5046193;28;20040;-70
2022/07/17 04:06:01;;;;;;;4.25;1.50;;;11.30;99.90;;;;;;5054779;28;20027;-70
2022/07/17 04:08:27;;;;;;;2.78;1.20;;;11.30;99.90;;;;;;5061068;28;20062;-70
2022/07/17 04:10:53;;;;;;;3.10;1.50;;;11.30;99.90;;;;;;5072729;28;20230;-70
2022/07/17 04:13:18;;;;;;;2.72;1.48;;;11.40;99.90;;;;;;5074457;28;20063;-70
2022/07/17 04:15:52;;;;;;;4.20;1.45;;;11.50;99.90;;;;;;5079152;28;20028;-70
2022/07/17 04:18:25;;;;;;;5.13;1.63;;;12.10;99.90;;;;;;5056315;28;20074;-70
2022/07/17 04:20:52;;;;;;;4.40;1.38;;;14.70;99.90;;;;;;5075153;28;20025;-70
2022/07/17 04:23:18;;;;;;;3.40;1.40;;;15.80;99.90;;;;;;5055124;28;20024;-70
2022/07/17 04:25:43;;;;;;;4.07;1.52;;;17.40;99.90;;;;;;5065738;28;20024;-70
2022/07/17 04:28:10;;;;;;;3.97;1.30;;;18.80;97.30;;;;;;5047702;28;20020;-69
2022/07/17 04:30:36;;;;;;;2.38;1.30;;;19.60;93.70;;;;;;5058042;28;20037;-70
2022/07/17 04:33:02;;;;;;;3.50;1.35;;;20.60;90.90;;;;;;4712798;28;10001050;-70
2022/07/17 04:35:28;;;;;;;4.90;1.42;;;21.00;87.70;;;;;;5048338;28;20024;-70
2022/07/17 04:37:53;;;;;;;4.93;1.70;;;20.70;86.30;;;;;;5053180;28;20040;-70
2022/07/17 04:40:20;;;;;;;4.60;1.50;;;19.90;88.40;;;;;;5045385;28;20496;-70
2022/07/17 04:42:46;;;;;;;3.25;1.50;;;19.10;90.40;;;;;;5047779;28;20028;-70
2022/07/17 04:45:13;;;;;;;5.38;1.63;;;18.40;91.70;;;;;;5047659;28;20520;-70
2022/07/17 04:47:40;;;;;;;2.40;1.30;;;17.60;93.40;;;;;;5056782;28;20029;-70
2022/07/17 04:50:06;;;;;;;4.07;1.30;;;16.90;95.40;;;;;;5059109;28;20515;-69
2022/07/17 04:52:32;;;;;;;2.78;1.42;;;16.30;96.90;;;;;;5051424;28;20463;-70
2022/07/17 04:54:57;;;;;;;4.25;1.60;;;15.70;99.00;;;;;;5061316;28;20024;-70
2022/07/17 04:57:23;;;;;;;5.70;1.60;;;15.30;99.90;;;;;;5063342;28;20020;-69
2022/07/17 04:59:48;;;;;;;4.38;1.50;;;15.00;99.90;;;;;;5049151;28;20224;-70
2022/07/17 05:02:14;;;;;;;6.90;1.65;;;14.90;99.90;;;;;;5048586;28;20086;-77
2022/07/17 05:04:40;;;;;;;4.43;1.63;;;14.80;99.90;;;;;;5048655;28;20460;-78
2022/07/17 05:07:06;;;;;;;6.10;1.75;;;14.90;99.90;;;;;;5054782;28;20032;-75
2022/07/17 05:09:31;;;;;;;5.03;1.80;;;14.90;99.90;;;;;;5056414;28;20039;-75
2022/07/17 05:11:57;;;;;;;8.20;1.90;;;14.90;99.90;;;;;;5068603;28;20028;-72
2022/07/17 05:14:22;;;;;;;4.95;2.10;;;15.00;99.90;;;;;;5050274;28;20025;-72
2022/07/17 05:16:48;;;;;;;4.50;1.95;;;15.10;99.90;;;;;;5047921;28;20492;-72
2022/07/17 05:19:14;;;;;;;5.32;1.80;;;15.20;99.90;;;;;;5059132;28;20059;-72
2022/07/17 05:21:39;;;;;;;2.60;1.50;;;15.20;99.90;;;;;;5063401;28;20052;-73
2022/07/17 05:24:05;;;;;;;6.45;1.77;;;15.00;99.90;;;;;;5059080;28;20026;-73
2022/07/17 05:26:31;;;;;;;2.75;1.60;;;15.00;99.90;;;;;;5049489;28;20024;-72
2022/07/17 05:28:56;;;;;;;6.93;1.67;;;14.90;99.90;;;;;;5040996;28;20139;-72
2022/07/17 05:31:22;;;;;;;3.70;1.70;;;14.80;99.90;;;;;;5054324;28;20480;-73
2022/07/17 05:33:47;;;;;;;3.55;1.40;;;14.80;99.90;;;;;;5058583;28;20032;-72
2022/07/17 05:36:13;;;;;;;3.90;1.50;;;14.80;99.90;;;;;;5048118;28;20120;-72
2022/07/17 05:38:38;;;;;;;3.00;1.80;;;14.80;99.90;;;;;;5056706;28;20078;-72
2022/07/17 05:41:04;;;;;;;2.75;1.60;;;14.80;99.90;;;;;;5050636;28;20480;-72
2022/07/17 05:43:30;;;;;;;3.15;1.23;;;14.80;99.90;;;;;;5053588;28;20451;-72
2022/07/17 05:45:57;;;;;;;2.65;1.52;;;14.80;99.90;;;;;;5067277;28;20028;-78
2022/07/17 05:48:24;;;;;;;5.18;1.70;;;14.80;99.90;;;;;;5049806;28;20036;-77
2022/07/17 05:50:49;;;;;;;3.75;1.52;;;14.90;99.90;;;;;;5067065;28;20033;-75
2022/07/17 05:53:16;;;;;;;5.88;1.52;;;15.00;99.90;;;;;;5061653;28;20662;-78
2022/07/17 05:55:41;;;;;;;3.92;1.50;;;15.20;99.90;;;;;;5074062;28;20031;-76
2022/07/17 05:58:07;;;;;;;5.05;1.73;;;15.30;99.90;;;;;;5061674;28;20297;-76
2022/07/17 06:00:33;;;;;;;3.95;1.70;;;15.40;99.90;;;;;;5055915;28;20031;-76
2022/07/17 06:02:59;;;;;;;6.55;1.80;;;15.50;99.90;;;;;;5056974;28;20029;-75
2022/07/17 06:05:26;;;;;;;8.88;2.10;;;15.50;99.90;;;;;;5063543;28;20035;-76
2022/07/17 06:07:52;;;;;;;6.38;1.55;;;15.70;99.90;;;;;;5064082;28;20544;-76
2022/07/17 06:10:17;;;;;;;5.78;1.55;;;15.90;99.90;;;;;;5060064;28;20036;-75
2022/07/17 06:12:43;;;;;;;3.92;1.48;;;16.00;99.90;;;;;;5055958;28;20404;-75
2022/07/17 06:15:09;;;;;;;3.92;1.70;;;16.10;99.90;;;;;;5057931;28;20029;-75
2022/07/17 06:17:35;;;;;;;3.65;1.48;;;16.20;99.90;;;;;;5051034;28;20032;-75
2022/07/17 06:20:00;;;;;;;5.25;1.60;;;16.10;99.90;;;;;;5045315;28;20508;-74
2022/07/17 06:22:26;;;;;;;5.72;1.50;;;16.00;99.90;;;;;;5056092;28;20033;-75
2022/07/17 06:24:52;;;;;;;5.28;1.45;;;16.00;99.90;;;;;;5040256;28;20025;-74
2022/07/17 06:27:17;;;;;;;5.50;1.50;;;16.00;99.90;;;;;;5047865;28;20029;-74
2022/07/17 06:29:43;;;;;;;6.93;1.80;;;16.00;99.90;;;;;;5044949;28;20079;-73
2022/07/17 06:32:09;;;;;;;6.15;1.95;;;16.10;99.90;;;;;;5047855;28;20043;-74
2022/07/17 06:34:34;;;;;;;4.93;1.40;;;16.00;99.90;;;;;;5041359;28;20044;-72
2022/07/17 06:37:00;;;;;;;4.07;1.60;;;16.00;99.90;;;;;;5052498;28;20548;-73
2022/07/17 06:39:26;;;;;;;2.35;1.30;;;16.00;99.90;;;;;;5043480;28;20025;-73
2022/07/17 06:41:51;;;;;;;7.05;1.80;;;16.10;99.90;;;;;;5055941;28;20789;-74
2022/07/17 06:44:17;;;;;;;5.25;1.85;;;16.30;99.90;;;;;;5056368;28;20156;-76
2022/07/17 06:46:42;;;;;;;3.72;1.80;;;16.40;99.90;;;;;;5060154;28;20040;-72
2022/07/17 06:49:08;;;;;;;3.72;1.70;;;16.50;99.90;;;;;;5065815;28;20194;-73
2022/07/17 06:51:34;;;;;;;7.00;2.13;;;16.70;99.90;;;;;;5064348;28;20031;-74
2022/07/17 06:53:59;;;;;;;6.03;2.03;;;16.90;99.90;;;;;;5058715;28;20036;-71
2022/07/17 06:56:25;;;;;;;4.20;1.65;;;17.20;99.90;;;;;;5065685;28;20036;-72
2022/07/17 06:58:50;;;;;;;5.88;1.55;;;17.50;99.90;;;;;;5048479;28;20021;-71
2022/07/17 07:01:16;;;;;;;2.95;1.42;;;17.80;99.90;;;;;;5049176;28;20500;-72
2022/07/17 07:03:42;;;;;;;4.40;1.50;;;18.10;99.90;;;;;;5053327;28;20112;-71
2022/07/17 07:06:08;;;;;;;4.00;1.40;;;18.40;99.90;;;;;;5057958;28;20500;-72
2022/07/17 07:08:34;;;;;;;2.97;1.27;;;18.60;99.90;;;;;;5059078;28;20052;-72
2022/07/17 07:11:01;;;;;;;5.35;1.67;;;18.90;99.90;;;;;;5062426;28;20399;-71
2022/07/17 07:13:26;;;;;;;4.57;1.27;;;19.10;99.90;;;;;;5056005;28;20261;-72
2022/07/17 07:15:52;;;;;;;4.18;1.70;;;;;;;;;;5052447;28;20039;-73
2022/07/17 07:18:18;;;;;;;3.38;1.20;;;19.50;96.20;;;;;;5044945;28;20043;-73
2022/07/17 07:20:43;;;;;;;4.95;1.30;;;19.70;95.10;;;;;;5047941;28;20033;-73
2022/07/17 07:23:09;;;;;;;4.43;1.20;;;20.00;93.80;;;;;;5047293;28;20049;-73
2022/07/17 07:25:35;;;;;;;6.43;1.25;;;20.20;94.00;;;;;;5055355;28;20093;-73
2022/07/17 07:28:02;;;;;;;3.42;1.38;;;20.40;93.10;;;;;;5067799;28;20020;-73
2022/07/17 07:30:27;;;;;;;6.35;1.10;;;20.50;92.90;;;;;;5052404;28;20121;-73
2022/07/17 07:32:53;;;;;;;2.80;0.98;;;20.80;92.20;;;;;;5048924;28;20123;-73
2022/07/17 07:35:18;;;;;;;5.50;1.05;;;20.80;91.20;;;;;;5059293;28;20043;-73
2022/07/17 07:37:44;;;;;;;3.25;1.00;;;21.00;91.80;;;;;;5047906;28;20051;-73
2022/07/17 07:40:10;;;;;;;6.65;1.17;;;21.10;91.90;;;;;;5043780;28;20025;-73
2022/07/17 07:42:36;;;;;;;4.65;1.20;;;21.30;90.40;;;;;;5053305;28;20051;-73
2022/07/17 07:45:02;;;;;;;3.65;1.00;;;21.40;88.50;;;;;;5047606;28;20473;-73
2022/07/17 07:47:28;;;;;;;3.38;0.90;;;21.60;84.80;;;;;;5047459;28;20184;-73
2022/07/17 07:49:53;;;;;;;5.55;1.10;;;21.70;96.30;;;;;;5058621;28;20036;-73
2022/07/17 07:52:19;;;;;;;3.92;1.15;;;21.80;91.00;;;;;;5059577;28;20024;-73
2022/07/17 07:54:44;;;;;;;3.22;0.90;;;22.00;90.30;;;;;;5047583;28;20052;-73
2022/07/17 07:57:10;;;;;;;5.85;0.98;;;22.00;86.30;;;;;;5049965;28;20501;-73
2022/07/17 07:59:36;;;;;;;6.28;1.10;;;22.20;97.30;;;;;;5043526;28;20029;-73
2022/07/17 08:02:02;;;;;;;3.33;1.10;;;22.40;92.90;;;;;;5046980;28;20390;-73
2022/07/17 08:04:28;;;;;;;4.82;0.98;;;22.50;93.80;;;;;;5055944;28;20107;-73
2022/07/17 08:06:54;;;;;;;4.13;1.00;;;22.60;92.60;;;;;;5053590;28;20025;-73
2022/07/17 08:09:19;;;;;;;4.95;0.80;;;22.80;72.20;;;;;;5048836;28;20405;-73
2022/07/17 08:11:45;;;;;;;5.00;1.02;;;22.90;72.40;;;;;;5046698;28;20076;-74
2022/07/17 08:14:10;;;;;;;6.28;0.82;;;23.10;70.20;;;;;;5047840;28;20021;-73
2022/07/17 08:16:37;;;;;;;3.35;0.77;;;23.20;68.90;;;;;;5056669;28;20405;-73
2022/07/17 08:19:02;;;;;;;1.83;0.70;;;23.40;69.50;;;;;;5065015;28;20091;-73
2022/07/17 08:21:28;;;;;;;3.80;0.90;;;23.60;67.30;;;;;;5050948;28;20044;-73
2022/07/17 08:23:54;;;;;;;4.40;0.80;;;23.50;66.50;;;;;;5058008;28;20116;-73
2022/07/17 08:26:20;;;;;;;7.03;1.15;;;23.30;67.30;;;;;;5063771;28;20020;-73
2022/07/17 08:28:46;;;;;;;3.92;0.90;;;23.20;66.80;;;;;;5064727;28;20055;-74
2022/07/17 08:31:12;;;;;;;3.70;0.80;;;23.20;66.70;;;;;;5065378;28;20016;-73
2022/07/17 08:33:37;;;;;;;5.65;1.00;;;23.30;67.20;;;;;;5048432;28;20233;-73
2022/07/17 08:36:04;;;;;;;3.67;1.00;;;23.50;65.60;;;;;;5056984;28;20401;-73
2022/07/17 08:38:29;;;;;;;3.90;0.90;;;23.40;65.80;;;;;;5046956;28;20365;-74
2022/07/17 08:40:55;;;;;;;3.55;1.08;;;23.40;65.40;;;;;;5058915;28;20029;-73
2022/07/17 08:43:21;;;;;;;6.03;1.05;;;23.50;65.30;;;;;;5047374;28;20075;-74
2022/07/17 08:45:48;;;;;;;3.33;0.90;;;23.40;64.10;;;;;;5046055;28;20065;-73
2022/07/17 08:48:15;;;;;;;4.10;0.80;;;23.40;65.10;;;;;;5044860;28;20021;-73
2022/07/17 08:50:42;;;;;;;5.72;1.05;;;23.60;64.20;;;;;;5050538;28;20036;-73
2022/07/17 08:53:08;;;;;;;2.85;0.68;;;23.80;63.20;;;;;;5056983;28;20028;-73
2022/07/17 08:55:34;;;;;;;4.30;0.80;;;23.80;63.10;;;;;;5046801;28;20032;-74
2022/07/17 08:58:00;;;;;;;3.67;0.90;;;23.60;61.90;;;;;;5063754;28;20036;-74
2022/07/17 09:00:27;;;;;;;3.25;0.80;;;23.50;62.90;;;;;;5051452;28;20037;-74
2022/07/17 09:03:00;;;;;;;3.17;0.88;;;23.50;62.40;;;;;;5044213;28;20047;-74
2022/07/17 09:05:29;;;;;;;2.42;0.90;;;23.50;62.30;;;;;;5046317;28;20025;-74
2022/07/17 09:07:55;;;;;;;4.97;1.10;;;23.50;62.60;;;;;;5045620;28;20072;-73
2022/07/17 09:10:32;;;;;;;6.53;0.90;;;23.70;61.90;;;;;;5043618;28;20489;-74
2022/07/17 09:13:00;;;;;;;3.97;0.80;;;23.80;60.30;;;;;;5057663;28;20572;-73
2022/07/17 09:15:25;;;;;;;3.15;0.90;;;23.70;59.40;;;;;;5065327;28;20042;-74
2022/07/17 09:17:53;;;;;;;2.45;0.85;;;23.70;59.60;;;;;;5052813;28;20029;-74
2022/07/17 09:20:20;;;;;;;3.88;0.80;;;23.80;59.00;;;;;;5052391;28;20124;-73
2022/07/17 09:23:00;;;;;;;2.60;1.00;;;23.80;58.90;;;;;;5066101;28;20091;-73
2022/07/17 09:25:33;;;;;;;5.72;0.85;;;23.80;58.20;;;;;;5065207;28;20040;-73
2022/07/17 09:28:01;;;;;;;3.60;0.75;;;23.90;57.80;;;;;;5065965;28;20298;-74
2022/07/17 09:30:27;;;;;;;2.42;0.80;;;24.10;57.80;;;;;;5048009;28;20069;-73
2022/07/17 09:32:55;;;;;;;3.30;0.95;;;24.30;56.40;;;;;;5047739;28;20454;-73
2022/07/17 09:35:22;;;;;;;4.85;0.80;;;24.40;56.30;;;;;;5045946;28;20107;-74
2022/07/17 09:37:50;;;;;;;4.93;1.17;;;24.30;57.60;;;;;;5085513;28;20127;-73
2022/07/17 09:41:09;;;;;;;3.85;0.80;;;24.30;55.90;;;;;;5074327;28;20056;-73
2022/07/17 09:43:02;;;;;;;2.60;0.65;;;24.30;56.10;;;;;;5045466;28;20179;-73
2022/07/17 09:45:28;;;;;;;3.60;1.05;;;24.40;57.10;;;;;;5045685;28;20044;-73
2022/07/17 09:47:54;;;;;;;2.35;0.90;;;24.50;56.50;;;;;;5051679;28;20486;-73
2022/07/17 09:50:20;;;;;;;5.38;0.80;;;24.60;56.70;;;;;;5044405;28;20563;-73
2022/07/17 09:52:48;;;;;;;2.15;0.73;;;24.70;55.80;;;;;;5046069;28;20415;-73
2022/07/17 09:55:16;;;;;;;2.85;0.70;;;24.80;54.70;;;;;;5053459;28;20032;-73
2022/07/17 09:57:43;;;;;;;3.65;0.80;;;24.90;51.70;;;;;;5047226;28;20028;-74
2022/07/17 10:00:12;;;;;;;3.17;0.70;;;24.80;50.80;;;;;;5043688;28;20480;-74
2022/07/17 10:02:45;;;;;;;4.80;1.00;;;24.90;49.70;;;;;;5044943;28;20020;-74
2022/07/17 10:05:12;;;;;;;2.10;0.60;;;24.90;49.40;;;;;;5049105;28;20040;-74
2022/07/17 10:07:40;;;;;;;2.40;0.70;;;24.80;48.80;;;;;;5050788;28;20454;-74
2022/07/17 10:10:08;;;;;;;2.30;0.70;;;24.70;48.60;;;;;;5044092;28;20432;-74
2022/07/17 10:12:37;;;;;;;1.83;0.60;;;24.60;49.80;;;;;;5045285;28;20485;-74
2022/07/17 10:15:04;;;;;;;2.78;0.68;;;24.70;50.40;;;;;;5045837;28;20067;-74
2022/07/17 10:17:29;;;;;;;7.13;1.10;;;24.80;49.90;;;;;;5045374;28;20041;-74
2022/07/17 10:19:56;;;;;;;4.30;0.85;;;24.80;50.00;;;;;;5047096;28;20092;-75
2022/07/17 10:22:23;;;;;;;2.72;0.77;;;24.90;50.20;;;;;;5058815;28;20504;-74
2022/07/17 10:24:55;;;;;;;3.50;1.15;;;25.00;67.50;;;;;;5059963;28;20021;-73
2022/07/17 10:27:29;;;;;;;6.28;1.17;;;25.00;68.40;;;;;;5056512;28;20033;-74
2022/07/17 10:30:06;;;;;;;4.13;0.82;;;25.00;51.50;;;;;;5056646;28;20048;-73
2022/07/17 10:32:32;;;;;;;7.95;0.98;;;25.00;50.20;;;;;;5056364;28;20033;-74
2022/07/17 10:35:04;;;;;;;4.15;0.80;;;24.90;51.40;;;;;;5070496;28;20028;-73
2022/07/17 10:37:36;;;;;;;4.57;0.90;;;24.80;51.40;;;;;;5067644;28;20048;-73
2022/07/17 10:40:21;;;;;;;3.03;0.85;;;24.70;51.70;;;;;;5084374;28;20120;-73
2022/07/17 10:42:54;;;;;;;2.88;1.00;;;24.60;51.80;;;;;;5048115;28;20025;-72
2022/07/17 10:45:21;;;;;;;7.45;1.05;;;24.50;57.70;;;;;;5061196;28;20024;-74
2022/07/17 10:47:59;;;;;;;2.28;0.70;;;24.50;56.40;;;;;;5056926;28;20032;-73
2022/07/17 10:50:40;;;;;;;4.43;0.80;;;24.60;54.70;;;;;;5053613;28;20045;-73
2022/07/17 10:53:10;;;;;;;3.13;0.90;;;24.40;54.60;;;;;;5077278;28;20057;-72
2022/07/17 10:55:41;;;;;;;2.72;0.80;;;24.40;53.80;;;;;;5062091;28;20057;-72
2022/07/17 10:58:21;;;;;;;3.85;0.80;;;24.20;52.00;;;;;;5054334;28;20093;-73
2022/07/17 11:01:14;;;;;;;2.67;0.85;;;24.30;51.30;;;;;;5054030;28;20107;-73
2022/07/17 11:03:49;;;;;;;3.55;0.80;;;24.30;51.50;;;;;;4348333;28;10000919;-73
2022/07/17 11:06:17;;;;;;;4.35;0.88;;;24.30;52.60;;;;;;5025715;28;20478;-73
2022/07/17 11:09:00;;;;;;;4.95;0.80;;;24.20;51.90;;;;;;5034426;28;20036;-73
2022/07/17 11:11:50;;;;;;;1.60;0.60;;;24.20;52.40;;;;;;5040393;28;20036;-75
2022/07/17 11:14:21;;;;;;;1.92;0.63;;;24.20;53.10;;;;;;5027589;28;20033;-74
2022/07/17 11:16:49;;;;;;;2.95;0.80;;;24.20;52.30;;;;;;5031801;28;20035;-74
2022/07/17 11:19:33;;;;;;;3.13;0.80;;;24.30;51.90;;;;;;5028208;28;20674;-73
2022/07/17 11:22:06;;;;;;;3.17;0.80;;;24.50;51.00;;;;;;5034273;28;20025;-74
2022/07/17 11:24:50;;;;;;;2.08;0.70;;;24.70;50.90;;;;;;5026734;28;20454;-74
2022/07/17 11:27:24;;;;;;;3.85;0.98;;;25.10;50.70;;;;;;5039385;28;20029;-76
2022/07/17 11:29:51;;;;;;;2.75;0.60;;;25.30;49.60;;;;;;5030696;28;20560;-76
2022/07/17 11:32:18;;;;;;;3.22;0.70;;;25.50;49.90;;;;;;5028022;28;20605;-76
2022/07/17 11:34:43;;;;;;;5.47;0.90;;;25.70;49.20;;;;;;5024867;28;20057;-77
2022/07/17 11:37:10;;;;;;;1.80;0.55;;;25.80;48.60;;;;;;5057871;28;20094;-76
2022/07/17 11:39:40;;;;;;;1.67;0.55;;;25.90;48.30;;;;;;5062019;28;20712;-74
2022/07/17 11:42:12;;;;;;;3.90;0.75;;;25.80;48.20;;;;;;5082301;28;20024;-76
2022/07/17 11:44:38;;;;;;;4.15;0.60;;;25.50;48.60;;;;;;5065917;28;20032;-78
2022/07/17 11:47:05;;;;;;;2.95;0.70;;;25.40;47.90;;;;;;5074669;28;20498;-76
2022/07/17 11:49:36;;;;;;;2.63;0.90;;;25.40;49.70;;;;;;5057802;28;20029;-74
2022/07/17 11:52:08;;;;;;;2.55;0.80;;;25.20;48.10;;;;;;5047164;28;20029;-75
2022/07/17 11:54:56;;;;;;;3.13;0.80;;;25.30;49.90;;;;;;5081261;28;20031;-75
2022/07/17 11:57:25;;;;;;;2.55;0.90;;;25.40;49.20;;;;;;5066992;28;20083;-76
2022/07/17 11:59:52;;;;;;;2.17;0.70;;;25.40;48.90;;;;;;5082183;28;20036;-74
2022/07/17 12:02:23;;;;;;;4.90;0.90;;;25.60;49.20;;;;;;5060690;28;20047;-73
2022/07/17 12:04:59;;;;;;;2.38;0.70;;;25.60;48.20;;;;;;5067491;28;20032;-74
2022/07/17 12:07:46;;;;;;;1.35;0.70;;;25.70;48.00;;;;;;5059225;28;20032;-74
2022/07/17 12:10:17;;;;;;;1.88;0.77;;;25.80;47.40;;;;;;5045256;28;20029;-73
2022/07/17 12:12:53;;;;;;;2.45;0.90;;;26.00;48.40;;;;;;5056062;28;20108;-74
2022/07/17 12:15:19;;;;;;;3.15;0.93;;;26.00;46.60;;;;;;5055307;28;20032;-75
2022/07/17 12:17:45;;;;;;;2.47;0.80;;;26.00;47.40;;;;;;5072835;28;20042;-76
2022/07/17 12:20:11;;;;;;;3.05;0.60;;;26.10;46.60;;;;;;5070308;28;20557;-74
2022/07/17 12:22:44;;;;;;;2.63;0.60;;;26.30;46.90;;;;;;5051525;28;20029;-75
2022/07/17 12:25:09;;;;;;;3.90;0.88;;;26.50;46.00;;;;;;5062596;28;20614;-75
2022/07/17 12:27:35;;;;;;;3.92;0.80;;;26.60;46.40;;;;;;5068033;28;20043;-75
2022/07/17 12:30:01;;;;;;;1.65;0.70;;;26.90;46.90;;;;;;5082863;28;20101;-74
2022/07/17 12:32:26;;;;;;;2.72;0.90;;;27.00;45.30;;;;;;5063410;28;20029;-76
2022/07/17 12:34:53;;;;;;;1.35;0.60;;;27.10;45.10;;;;;;5064822;28;20704;-75
2022/07/17 12:37:21;;;;;;;1.77;0.80;;;27.30;45.50;;;;;;5066353;28;20061;-75
2022/07/17 12:39:48;;;;;;;3.88;0.93;;;27.40;45.50;;;;;;5057177;28;20032;-74
2022/07/17 12:42:15;;;;;;;2.45;0.90;;;27.40;44.70;;;;;;5067522;28;20472;-74
2022/07/17 12:44:42;;;;;;;1.90;0.60;;;27.10;44.60;;;;;;5074638;28;20457;-75
2022/07/17 12:47:09;;;;;;;2.10;0.80;;;27.00;44.70;;;;;;5048274;28;20104;-75
2022/07/17 12:49:34;;;;;;;3.50;0.73;;;27.00;44.30;;;;;;5056901;28;20024;-76